Ruma, Illinois
Current Conditions -  °F | °C
As of 1:55 PM on Saturday 25 Oct 2014 (Local Time) from KSAR Reporting Station
Clear Clear  
Wind Chill: 76°   Ceiling: Unl
Heat Index: 78°   Visibility: 10mi
Dew Point: 60°   Wind: 0mph
Humidity: 56%   Direction: NA
Pressure: 30.01"   Gusts: NA
Location:  38.1575°N, 89.9813°W
Report Text: KSAR 251855Z AUTO 00000KT 10SM CLR 25/15 A3001 RMK AO2 T02470153
Loading
Personal Weather Stations






























Interactive Weather Map New forecast layout! Learn more

10-Day Weather Forecast

Advertisements
Track Severe Weather on mobile